createdAt,value
2022-11-18T00:01:05.888Z,7.96
2022-11-18T00:03:32.661Z,8.06
2022-11-18T00:05:59.668Z,8.01
2022-11-18T00:08:26.797Z,8.00
2022-11-18T00:10:54.166Z,7.93
2022-11-18T00:13:39.956Z,7.81
2022-11-18T00:16:11.995Z,7.55
2022-11-18T00:18:39.197Z,7.36
2022-11-18T00:21:09.633Z,7.49
2022-11-18T00:23:36.670Z,7.42
2022-11-18T00:26:04.682Z,7.46
2022-11-18T00:28:32.228Z,7.27
2022-11-18T00:31:07.671Z,7.16
2022-11-18T00:33:34.659Z,7.18
2022-11-18T00:36:01.663Z,7.18
2022-11-18T00:38:29.926Z,7.09
2022-11-18T00:41:02.004Z,7.02
2022-11-18T00:43:29.891Z,6.92
2022-11-18T00:45:56.948Z,6.92
2022-11-18T00:48:23.904Z,6.96
2022-11-18T00:50:52.354Z,6.86
2022-11-18T00:53:20.046Z,6.79
2022-11-18T00:55:47.083Z,6.67
2022-11-18T00:58:16.602Z,6.69
2022-11-18T01:00:45.492Z,6.75
2022-11-18T01:03:12.863Z,6.74
2022-11-18T01:05:40.339Z,6.60
2022-11-18T01:08:08.707Z,6.58
2022-11-18T01:10:36.942Z,6.62
2022-11-18T01:13:19.375Z,6.74
2022-11-18T01:15:55.345Z,6.75
2022-11-18T01:18:25.044Z,6.71
2022-11-18T01:20:52.736Z,6.68
2022-11-18T01:23:20.938Z,6.73
2022-11-18T01:25:49.709Z,6.74
2022-11-18T01:28:21.964Z,6.86
2022-11-18T01:30:50.926Z,6.91
2022-11-18T01:33:17.738Z,6.81
2022-11-18T01:35:45.287Z,6.81
2022-11-18T01:38:14.017Z,6.79
2022-11-18T01:40:41.762Z,6.77
2022-11-18T01:43:17.517Z,6.83
2022-11-18T01:45:49.400Z,6.89
2022-11-18T01:48:21.133Z,6.86
2022-11-18T01:50:54.545Z,6.82
2022-11-18T01:53:32.561Z,6.78
2022-11-18T01:56:04.542Z,6.80
2022-11-18T01:58:37.829Z,6.68
2022-11-18T02:01:06.717Z,6.65
2022-11-18T02:03:34.948Z,6.56
2022-11-18T02:06:04.761Z,6.53
2022-11-18T02:08:32.942Z,6.50
2022-11-18T02:10:59.995Z,6.55
2022-11-18T02:13:26.804Z,6.50
2022-11-18T02:16:04.048Z,6.41
2022-11-18T02:18:45.645Z,6.47
2022-11-18T02:21:12.613Z,6.46
2022-11-18T02:24:10.137Z,6.37
2022-11-18T02:26:49.264Z,6.42
2022-11-18T02:29:27.514Z,6.42
2022-11-18T02:32:06.423Z,6.45
2022-11-18T02:34:52.960Z,6.42
2022-11-18T02:37:41.554Z,6.59
2022-11-18T02:40:21.487Z,6.65
2022-11-18T02:42:54.811Z,6.70
2022-11-18T02:45:22.858Z,6.76
2022-11-18T02:47:52.223Z,6.80
2022-11-18T02:50:25.441Z,6.79
2022-11-18T02:52:57.226Z,6.82
2022-11-18T02:55:28.080Z,6.89
2022-11-18T02:57:59.336Z,6.86
2022-11-18T03:00:26.096Z,6.89
2022-11-18T03:02:53.123Z,7.04
2022-11-18T03:05:39.417Z,7.23
2022-11-18T03:08:13.632Z,7.15
2022-11-18T03:10:52.865Z,7.07
2022-11-18T03:13:48.354Z,7.04
2022-11-18T03:16:21.541Z,7.11
2022-11-18T03:18:58.388Z,7.11
2022-11-18T03:21:29.049Z,7.17
2022-11-18T03:24:19.039Z,7.20
2022-11-18T03:26:51.012Z,7.14
2022-11-18T03:29:23.680Z,7.27
2022-11-18T03:31:57.104Z,7.31
2022-11-18T03:34:30.089Z,7.28
2022-11-18T03:37:01.960Z,7.35
2022-11-18T03:39:35.471Z,7.45
2022-11-18T03:42:22.873Z,7.56
2022-11-18T03:45:00.621Z,7.39
2022-11-18T03:47:33.599Z,7.52
2022-11-18T03:50:16.170Z,7.38
2022-11-18T03:52:43.750Z,7.43
2022-11-18T03:55:41.917Z,7.23
2022-11-18T03:58:15.643Z,7.25
2022-11-18T04:00:49.943Z,7.24
2022-11-18T04:03:16.775Z,7.23
2022-11-18T04:05:44.462Z,7.29
2022-11-18T04:08:18.436Z,7.28
2022-11-18T04:10:56.844Z,7.24
2022-11-18T04:13:27.409Z,7.26
2022-11-18T04:15:54.657Z,7.28
2022-11-18T04:18:21.976Z,7.36
2022-11-18T04:20:49.042Z,7.27
2022-11-18T04:23:15.798Z,7.22
2022-11-18T04:25:42.833Z,7.14
2022-11-18T04:28:09.586Z,7.22
2022-11-18T04:30:36.669Z,7.20
2022-11-18T04:33:03.504Z,7.22
2022-11-18T04:35:30.548Z,7.28
2022-11-18T04:37:57.363Z,7.28
2022-11-18T04:40:24.444Z,7.33
2022-11-18T04:42:51.215Z,7.30
2022-11-18T04:45:18.342Z,7.28
2022-11-18T04:47:45.086Z,7.34
2022-11-18T04:50:12.169Z,7.34
2022-11-18T04:52:39.112Z,7.32
2022-11-18T04:55:06.486Z,7.33
2022-11-18T04:57:33.340Z,7.36
2022-11-18T05:00:00.387Z,7.37
2022-11-18T05:02:27.136Z,7.42
2022-11-18T05:04:54.188Z,7.39
2022-11-18T05:07:21.011Z,7.37
2022-11-18T05:09:48.184Z,7.32
2022-11-18T05:12:34.179Z,7.33
2022-11-18T05:15:01.468Z,7.36
2022-11-18T05:17:28.298Z,7.31
2022-11-18T05:19:55.449Z,7.26
2022-11-18T05:22:22.292Z,7.22
2022-11-18T05:24:49.503Z,7.25
2022-11-18T05:27:16.822Z,7.27
2022-11-18T05:29:43.934Z,7.21
2022-11-18T05:32:10.930Z,7.21
2022-11-18T05:34:38.990Z,7.24
2022-11-18T05:37:05.796Z,7.25
2022-11-18T05:39:33.932Z,7.31
2022-11-18T05:42:19.428Z,7.37
2022-11-18T05:44:46.562Z,7.39
2022-11-18T05:47:13.673Z,7.38
2022-11-18T05:49:40.740Z,7.42
2022-11-18T05:52:07.932Z,7.40
2022-11-18T05:54:35.319Z,7.42
2022-11-18T05:57:02.092Z,7.36
2022-11-18T05:59:29.248Z,7.28
2022-11-18T06:01:59.840Z,7.33
2022-11-18T06:04:38.525Z,7.37
2022-11-18T06:07:10.948Z,7.32
2022-11-18T06:09:41.905Z,7.32
2022-11-18T06:12:09.877Z,7.40
2022-11-18T06:14:45.107Z,7.42
2022-11-18T06:17:30.988Z,7.35
2022-11-18T06:19:58.832Z,7.34
2022-11-18T06:22:26.404Z,7.41
2022-11-18T06:24:53.946Z,7.32
2022-11-18T06:27:21.544Z,7.31
2022-11-18T06:29:48.605Z,7.42
2022-11-18T06:32:15.439Z,7.45
2022-11-18T06:34:42.488Z,7.49
2022-11-18T06:37:14.024Z,7.36
2022-11-18T06:39:41.175Z,7.41
2022-11-18T06:42:08.016Z,7.43
2022-11-18T06:44:35.210Z,7.38
2022-11-18T06:47:03.699Z,7.37
2022-11-18T06:49:30.728Z,7.34
2022-11-18T06:52:00.524Z,7.48
2022-11-18T06:54:27.587Z,7.38
2022-11-18T06:56:54.340Z,7.40
2022-11-18T06:59:23.761Z,7.38
2022-11-18T07:01:53.243Z,7.38
2022-11-18T07:04:20.703Z,7.40
2022-11-18T07:06:47.599Z,7.44
2022-11-18T07:09:14.848Z,7.37
2022-11-18T07:11:41.817Z,7.43
2022-11-18T07:14:09.479Z,7.38
2022-11-18T07:16:37.865Z,7.44
2022-11-18T07:19:12.975Z,7.49
2022-11-18T07:21:40.614Z,7.51
2022-11-18T07:24:09.071Z,7.63
2022-11-18T07:26:36.441Z,7.64
2022-11-18T07:29:04.202Z,7.66
2022-11-18T07:31:32.481Z,7.65
2022-11-18T07:33:59.719Z,7.62
2022-11-18T07:36:34.057Z,7.58
2022-11-18T07:39:05.208Z,7.61
2022-11-18T07:41:32.620Z,7.74
2022-11-18T07:44:02.075Z,7.67
2022-11-18T07:46:38.598Z,7.81
2022-11-18T07:49:08.902Z,7.75
2022-11-18T07:51:37.991Z,7.82
2022-11-18T07:54:13.291Z,7.81
2022-11-18T07:56:40.204Z,7.86
2022-11-18T07:59:07.751Z,7.90
2022-11-18T08:01:35.148Z,7.96
2022-11-18T08:04:10.061Z,7.93
2022-11-18T08:06:37.639Z,7.99
2022-11-18T08:09:06.194Z,7.99
2022-11-18T08:11:32.963Z,8.05
2022-11-18T08:14:00.190Z,8.04
2022-11-18T08:16:27.696Z,8.02
2022-11-18T08:18:55.162Z,7.92
2022-11-18T08:21:23.091Z,7.86
2022-11-18T08:23:55.780Z,7.81
2022-11-18T08:26:23.491Z,7.82
2022-11-18T08:28:50.791Z,7.82
2022-11-18T08:31:20.684Z,7.82
2022-11-18T08:33:48.094Z,7.92
2022-11-18T08:36:17.945Z,7.86
2022-11-18T08:38:45.193Z,7.92
2022-11-18T08:41:14.750Z,7.85
2022-11-18T08:43:42.574Z,7.94
2022-11-18T08:46:09.355Z,7.96
2022-11-18T08:48:36.542Z,7.87
2022-11-18T08:51:03.803Z,7.85
2022-11-18T08:53:31.018Z,7.85
2022-11-18T08:56:01.359Z,7.79
2022-11-18T08:58:28.427Z,7.76
2022-11-18T09:00:55.674Z,7.71
2022-11-18T09:03:23.609Z,7.70
2022-11-18T09:05:50.677Z,7.73
2022-11-18T09:08:17.756Z,7.65
2022-11-18T09:10:44.552Z,7.68
2022-11-18T09:13:42.530Z,7.67
2022-11-18T09:15:59.357Z,7.75
2022-11-18T09:18:26.661Z,7.74
2022-11-18T09:21:02.329Z,7.73
2022-11-18T09:23:30.743Z,7.79
2022-11-18T09:26:09.451Z,7.74
2022-11-18T09:28:36.839Z,7.72
2022-11-18T09:31:12.208Z,7.71
2022-11-18T09:33:39.560Z,7.73
2022-11-18T09:36:15.953Z,7.75
2022-11-18T09:38:42.750Z,7.80
2022-11-18T09:41:09.769Z,7.80
2022-11-18T09:44:00.380Z,7.82
2022-11-18T09:46:35.198Z,7.75
2022-11-18T09:49:15.207Z,7.70
2022-11-18T09:51:45.497Z,7.72
2022-11-18T09:54:24.232Z,7.74
2022-11-18T09:56:53.740Z,7.73
2022-11-18T09:59:27.377Z,7.74
2022-11-18T10:01:58.378Z,7.57
2022-11-18T10:04:28.644Z,7.61
2022-11-18T10:06:56.732Z,7.55
2022-11-18T10:09:39.881Z,7.59
2022-11-18T10:12:19.187Z,7.63
2022-11-18T10:14:57.635Z,7.66
2022-11-18T10:18:02.476Z,7.69
2022-11-18T10:20:32.314Z,7.63
2022-11-18T10:23:17.501Z,7.50
2022-11-18T10:25:44.552Z,7.46
2022-11-18T10:28:23.860Z,7.48
2022-11-18T10:30:51.921Z,7.47
2022-11-18T10:33:21.944Z,7.49
2022-11-18T10:35:49.874Z,7.48
2022-11-18T10:38:19.854Z,7.56
2022-11-18T10:41:08.781Z,7.58
2022-11-18T10:43:48.705Z,7.60
2022-11-18T10:46:18.218Z,7.65
2022-11-18T10:48:45.357Z,7.63
2022-11-18T10:51:24.718Z,7.61
2022-11-18T10:53:51.727Z,7.63
2022-11-18T10:56:18.697Z,7.52
2022-11-18T10:58:51.510Z,7.52
2022-11-18T11:01:26.955Z,7.48
2022-11-18T11:04:12.608Z,7.47
2022-11-18T11:06:39.489Z,7.42
2022-11-18T11:09:15.660Z,7.39
2022-11-18T11:11:55.576Z,7.47
2022-11-18T11:14:54.915Z,7.43
2022-11-18T11:17:33.410Z,7.38
2022-11-18T11:20:15.655Z,7.48
2022-11-18T11:22:42.882Z,7.48
2022-11-18T11:25:17.163Z,7.46
2022-11-18T11:30:55.358Z,7.47
2022-11-18T11:33:42.344Z,7.44
2022-11-18T11:36:09.401Z,7.41
2022-11-18T11:38:38.814Z,7.39
2022-11-18T11:41:12.202Z,7.37
2022-11-18T11:43:39.623Z,7.34
2022-11-18T11:46:23.494Z,7.31
2022-11-18T11:48:59.862Z,7.27
2022-11-18T11:51:26.890Z,7.31
2022-11-18T11:54:21.638Z,7.29
2022-11-18T11:56:59.113Z,7.31
2022-11-18T11:59:44.547Z,7.27
2022-11-18T12:02:35.237Z,7.33
2022-11-18T12:05:25.130Z,7.35
2022-11-18T12:07:57.390Z,7.32
2022-11-18T12:10:24.217Z,7.18
2022-11-18T12:13:26.771Z,7.10
2022-11-18T12:16:22.112Z,7.10
2022-11-18T12:19:10.743Z,7.02
2022-11-18T12:21:46.925Z,7.07
2022-11-18T12:24:20.653Z,6.95
2022-11-18T12:26:49.897Z,6.93
2022-11-18T12:29:26.018Z,6.84
2022-11-18T12:31:55.168Z,6.86
2022-11-18T12:34:42.637Z,6.93
2022-11-18T12:37:35.427Z,6.97
2022-11-18T12:40:02.460Z,6.99
2022-11-18T12:43:04.897Z,7.03
2022-11-18T12:45:40.996Z,6.96
2022-11-18T12:48:28.023Z,6.96
2022-11-18T12:51:14.303Z,6.97
2022-11-18T12:53:45.982Z,6.93
2022-11-18T12:56:34.511Z,6.87
2022-11-18T12:59:02.706Z,6.91
2022-11-18T13:01:36.251Z,6.98
2022-11-18T13:04:17.711Z,6.96
2022-11-18T13:06:45.022Z,6.91
2022-11-18T13:09:19.232Z,6.95
2022-11-18T13:11:52.967Z,6.98
2022-11-18T13:14:50.981Z,6.89
2022-11-18T13:17:50.815Z,6.76
2022-11-18T13:20:38.551Z,6.81
2022-11-18T13:23:33.439Z,6.76
2022-11-18T13:26:06.157Z,6.75
2022-11-18T13:28:47.970Z,6.73
2022-11-18T13:31:26.610Z,6.67
2022-11-18T13:33:53.665Z,6.70
2022-11-18T13:36:25.687Z,6.68
2022-11-18T13:39:06.611Z,6.67
2022-11-18T13:41:35.434Z,6.70
2022-11-18T13:44:22.937Z,6.73
2022-11-18T13:47:12.922Z,6.75
2022-11-18T13:49:50.271Z,6.74
2022-11-18T13:52:38.001Z,6.85
2022-11-18T13:55:27.399Z,6.85
2022-11-18T13:58:03.352Z,6.85
2022-11-18T14:00:34.401Z,6.89
2022-11-18T14:03:06.468Z,6.83
2022-11-18T14:05:33.567Z,6.89
2022-11-18T14:08:20.319Z,6.81
2022-11-18T14:10:47.403Z,6.85
2022-11-18T14:13:28.311Z,6.90
2022-11-18T14:15:57.905Z,6.92
2022-11-18T14:18:34.523Z,6.92
2022-11-18T14:21:03.143Z,6.85
2022-11-18T14:23:33.363Z,6.85
2022-11-18T14:26:03.198Z,6.89
2022-11-18T14:28:33.848Z,6.86
2022-11-18T14:31:12.762Z,6.90
2022-11-18T14:33:39.622Z,6.89
2022-11-18T14:36:15.653Z,6.84
2022-11-18T14:39:11.283Z,6.92
2022-11-18T14:41:47.314Z,6.90
2022-11-18T14:44:14.528Z,7.00
2022-11-18T14:46:44.321Z,6.95
2022-11-18T14:49:16.954Z,6.87
2022-11-18T14:51:45.262Z,6.87
2022-11-18T14:54:14.030Z,6.93
2022-11-18T14:56:42.398Z,6.89
2022-11-18T14:59:13.674Z,6.92
2022-11-18T15:01:42.154Z,6.86
2022-11-18T15:04:09.455Z,6.90
2022-11-18T15:06:37.222Z,6.93
2022-11-18T15:09:04.084Z,6.90
2022-11-18T15:11:31.057Z,6.91
2022-11-18T15:13:57.827Z,6.92
2022-11-18T15:16:27.791Z,6.90
2022-11-18T15:19:00.382Z,6.94
2022-11-18T15:21:28.328Z,6.93
2022-11-18T15:23:55.070Z,6.85
2022-11-18T15:26:23.312Z,6.92
2022-11-18T15:28:52.175Z,6.95
2022-11-18T15:31:20.125Z,6.92
2022-11-18T15:33:49.919Z,6.95
2022-11-18T15:36:22.194Z,7.00
2022-11-18T15:38:49.594Z,7.05
2022-11-18T15:41:23.830Z,6.91
2022-11-18T15:43:51.330Z,6.97
2022-11-18T15:46:20.126Z,6.91
2022-11-18T15:48:48.308Z,6.87
2022-11-18T15:51:16.170Z,6.96
2022-11-18T15:53:42.901Z,7.04
2022-11-18T15:56:24.694Z,7.01
2022-11-18T15:59:03.321Z,6.99
2022-11-18T16:01:35.850Z,7.04
2022-11-18T16:04:04.536Z,6.96
2022-11-18T16:06:31.958Z,6.93
2022-11-18T16:09:00.296Z,7.00
2022-11-18T16:11:47.630Z,6.94
2022-11-18T16:14:17.878Z,6.98
2022-11-18T16:16:46.721Z,6.96
2022-11-18T16:19:16.094Z,6.95
2022-11-18T16:21:48.763Z,6.97
2022-11-18T16:24:24.291Z,6.96
2022-11-18T16:26:51.766Z,6.97
2022-11-18T16:29:19.420Z,6.98
2022-11-18T16:31:52.726Z,7.00
2022-11-18T16:34:24.391Z,6.97
2022-11-18T16:36:53.648Z,6.91
2022-11-18T16:39:26.077Z,6.90
2022-11-18T16:41:55.593Z,6.90
2022-11-18T16:44:23.244Z,6.91
2022-11-18T16:46:55.760Z,6.98
2022-11-18T16:49:25.335Z,7.00
2022-11-18T16:51:54.921Z,6.98
2022-11-18T16:54:24.205Z,6.95
2022-11-18T16:56:53.316Z,7.01
2022-11-18T16:59:22.530Z,7.04
2022-11-18T17:01:51.526Z,7.06
2022-11-18T17:04:19.984Z,7.02
2022-11-18T17:06:47.206Z,6.96
2022-11-18T17:09:16.927Z,6.93
2022-11-18T17:11:44.403Z,7.02
2022-11-18T17:14:11.249Z,6.98
2022-11-18T17:16:38.601Z,7.02
2022-11-18T17:19:11.662Z,7.07
2022-11-18T17:21:39.136Z,7.05
2022-11-18T17:24:06.783Z,7.05
2022-11-18T17:26:34.105Z,7.07
2022-11-18T17:29:01.002Z,7.05
2022-11-18T17:31:28.086Z,7.03
2022-11-18T17:33:56.205Z,6.97
2022-11-18T17:36:25.463Z,7.10
2022-11-18T17:38:54.615Z,7.10
2022-11-18T17:41:42.827Z,7.09
2022-11-18T17:44:11.709Z,7.03
2022-11-18T17:46:39.060Z,7.07
2022-11-18T17:49:10.349Z,7.15
2022-11-18T17:51:37.459Z,7.28
2022-11-18T17:54:04.336Z,7.13
2022-11-18T17:56:31.528Z,7.10
2022-11-18T17:58:58.376Z,7.21
2022-11-18T18:01:25.596Z,7.24
2022-11-18T18:03:52.478Z,7.28
2022-11-18T18:06:21.134Z,7.30
2022-11-18T18:08:47.913Z,7.28
2022-11-18T18:11:18.529Z,7.28
2022-11-18T18:14:05.031Z,7.25
2022-11-18T18:16:33.655Z,7.27
2022-11-18T18:19:01.862Z,7.35
2022-11-18T18:21:28.855Z,7.40
2022-11-18T18:23:55.960Z,7.39
2022-11-18T18:26:29.717Z,7.39
2022-11-18T18:28:59.027Z,7.49
2022-11-18T18:31:26.728Z,7.59
2022-11-18T18:33:53.493Z,7.49
2022-11-18T18:36:21.371Z,7.42
2022-11-18T18:38:48.210Z,7.40
2022-11-18T18:41:17.864Z,7.26
2022-11-18T18:43:46.054Z,7.39
2022-11-18T18:46:30.763Z,7.42
2022-11-18T18:49:06.290Z,7.36
2022-11-18T18:51:41.449Z,7.40
2022-11-18T18:54:11.056Z,7.42
2022-11-18T18:56:38.712Z,7.41
2022-11-18T18:59:06.039Z,7.44
2022-11-18T19:01:33.668Z,7.39
2022-11-18T19:04:02.922Z,7.32
2022-11-18T19:09:20.526Z,7.35
2022-11-18T19:12:06.243Z,7.38
2022-11-18T19:14:34.188Z,7.35
2022-11-18T19:17:08.147Z,7.31
2022-11-18T19:19:56.464Z,7.25
2022-11-18T19:22:24.718Z,7.26
2022-11-18T19:24:51.686Z,7.26
2022-11-18T19:27:19.524Z,7.27
2022-11-18T19:29:46.760Z,7.16
2022-11-18T19:32:14.640Z,7.14
2022-11-18T19:34:41.846Z,7.19
2022-11-18T19:37:09.246Z,7.07
2022-11-18T19:39:37.933Z,7.06
2022-11-18T19:42:05.194Z,7.11
2022-11-18T19:44:31.988Z,7.05
2022-11-18T19:46:59.221Z,7.07
2022-11-18T19:49:25.956Z,7.09
2022-11-18T19:51:53.007Z,7.05
2022-11-18T19:54:19.782Z,7.09
2022-11-18T19:56:46.875Z,6.98
2022-11-18T19:59:13.701Z,6.94
2022-11-18T20:01:41.499Z,7.10
2022-11-18T20:04:08.521Z,7.11
2022-11-18T20:06:36.385Z,6.94
2022-11-18T20:09:06.217Z,6.93
2022-11-18T20:11:33.214Z,6.93
2022-11-18T20:14:00.121Z,6.91
2022-11-18T20:16:27.178Z,6.97
2022-11-18T20:18:55.922Z,6.96
2022-11-18T20:21:24.478Z,6.96
2022-11-18T20:23:54.849Z,6.97
2022-11-18T20:26:24.239Z,6.86
2022-11-18T20:28:56.050Z,6.82
2022-11-18T20:31:26.048Z,6.74
2022-11-18T20:33:54.699Z,6.78
2022-11-18T20:36:27.427Z,6.70
2022-11-18T20:38:59.910Z,6.68
2022-11-18T20:41:30.379Z,6.56
2022-11-18T20:43:57.670Z,6.54
2022-11-18T20:46:25.470Z,6.64
2022-11-18T20:48:52.298Z,6.59
2022-11-18T20:51:24.306Z,6.54
2022-11-18T20:53:52.662Z,6.31
2022-11-18T20:56:25.105Z,6.21
2022-11-18T20:58:52.169Z,6.14
2022-11-18T21:01:28.201Z,6.11
2022-11-18T21:03:57.340Z,6.11
2022-11-18T21:06:27.058Z,6.06
2022-11-18T21:09:03.473Z,6.08
2022-11-18T21:11:33.086Z,6.04
2022-11-18T21:14:23.557Z,6.12
2022-11-18T21:17:01.279Z,6.10
2022-11-18T21:19:29.257Z,5.99
2022-11-18T21:21:56.776Z,5.97
2022-11-18T21:24:27.471Z,5.92
2022-11-18T21:26:55.436Z,5.94
2022-11-18T21:29:23.833Z,5.93
2022-11-18T21:31:51.903Z,5.90
2022-11-18T21:34:18.834Z,5.88
2022-11-18T21:36:50.349Z,5.84
2022-11-18T21:39:21.530Z,5.78
2022-11-18T21:41:54.874Z,5.60
2022-11-18T21:44:22.273Z,5.54
2022-11-18T21:46:49.321Z,5.56
2022-11-18T21:49:16.356Z,5.41
2022-11-18T21:51:44.169Z,5.30
2022-11-18T21:54:12.569Z,5.30
2022-11-18T21:56:39.802Z,5.31
2022-11-18T21:59:07.686Z,5.22
2022-11-18T22:01:35.122Z,5.20
2022-11-18T22:04:04.359Z,5.12
2022-11-18T22:06:33.783Z,5.02
2022-11-18T22:09:02.985Z,4.88
2022-11-18T22:11:29.965Z,4.80
2022-11-18T22:13:57.342Z,4.75
2022-11-18T22:16:25.540Z,4.72
2022-11-18T22:19:00.389Z,4.67
2022-11-18T22:21:29.318Z,4.54
2022-11-18T22:23:59.523Z,4.44
2022-11-18T22:26:26.532Z,4.26
2022-11-18T22:28:54.980Z,4.32
2022-11-18T22:31:22.910Z,4.30
2022-11-18T22:33:51.406Z,4.18
2022-11-18T22:36:20.539Z,4.25
2022-11-18T22:38:48.259Z,4.21
2022-11-18T22:41:35.815Z,4.23
2022-11-18T22:44:07.395Z,4.17
2022-11-18T22:46:39.460Z,4.09
2022-11-18T22:49:07.615Z,4.04
2022-11-18T22:51:38.210Z,4.10
2022-11-18T22:56:56.670Z,3.94
2022-11-18T22:59:24.249Z,4.08
2022-11-18T23:01:52.098Z,3.98
2022-11-18T23:04:21.846Z,3.97
2022-11-18T23:06:49.570Z,3.89
2022-11-18T23:09:16.996Z,3.84
2022-11-18T23:12:02.720Z,3.82
2022-11-18T23:14:29.759Z,3.76
2022-11-18T23:16:56.492Z,3.76
2022-11-18T23:19:23.565Z,3.73
2022-11-18T23:21:50.459Z,3.81
2022-11-18T23:24:18.974Z,3.89
2022-11-18T23:26:47.212Z,3.89
2022-11-18T23:29:15.753Z,3.90
2022-11-18T23:31:44.354Z,3.83
2022-11-18T23:34:12.973Z,3.87
2022-11-18T23:36:40.728Z,3.94
2022-11-18T23:39:08.431Z,4.01
2022-11-18T23:41:35.392Z,4.05
2022-11-18T23:44:02.854Z,3.71
2022-11-18T23:46:29.904Z,3.68
2022-11-18T23:48:56.932Z,3.74
2022-11-18T23:51:25.215Z,3.83
2022-11-18T23:53:55.692Z,3.78
2022-11-18T23:56:25.261Z,3.70
2022-11-18T23:58:54.146Z,3.48
